sensor_id;sensor_type;location;lat;lon;timestamp;temperature;humidity
22450;DHT22;11392;57.390;-2.468;2024-01-06T00:01:15;1.80;99.90
22450;DHT22;11392;57.390;-2.468;2024-01-06T00:03:42;1.80;99.90
22450;DHT22;11392;57.390;-2.468;2024-01-06T00:06:13;1.80;99.90
22450;DHT22;11392;57.390;-2.468;2024-01-06T00:08:41;1.90;99.90
22450;DHT22;11392;57.390;-2.468;2024-01-06T00:11:09;1.90;99.90
22450;DHT22;11392;57.390;-2.468;2024-01-06T00:13:36;1.90;99.90
22450;DHT22;11392;57.390;-2.468;2024-01-06T00:16:03;2.00;99.90
22450;DHT22;11392;57.390;-2.468;2024-01-06T00:18:30;2.00;99.90
22450;DHT22;11392;57.390;-2.468;2024-01-06T00:20:57;2.00;99.90
22450;DHT22;11392;57.390;-2.468;2024-01-06T00:23:24;1.90;99.90
22450;DHT22;11392;57.390;-2.468;2024-01-06T00:25:51;1.90;99.90
22450;DHT22;11392;57.390;-2.468;2024-01-06T00:28:19;1.90;99.90
22450;DHT22;11392;57.390;-2.468;2024-01-06T00:30:47;1.90;99.90
22450;DHT22;11392;57.390;-2.468;2024-01-06T00:33:14;1.80;99.90
22450;DHT22;11392;57.390;-2.468;2024-01-06T00:35:41;1.90;99.90
22450;DHT22;11392;57.390;-2.468;2024-01-06T00:38:08;1.80;99.90
22450;DHT22;11392;57.390;-2.468;2024-01-06T00:40:35;1.80;99.90
22450;DHT22;11392;57.390;-2.468;2024-01-06T00:43:02;1.80;99.90
22450;DHT22;11392;57.390;-2.468;2024-01-06T00:45:29;1.90;99.90
22450;DHT22;11392;57.390;-2.468;2024-01-06T00:47:57;1.80;99.90
22450;DHT22;11392;57.390;-2.468;2024-01-06T00:50:25;1.80;99.90
22450;DHT22;11392;57.390;-2.468;2024-01-06T00:52:52;1.90;99.90
22450;DHT22;11392;57.390;-2.468;2024-01-06T00:55:20;1.80;99.90
22450;DHT22;11392;57.390;-2.468;2024-01-06T00:57:47;1.80;99.90
22450;DHT22;11392;57.390;-2.468;2024-01-06T01:00:14;1.80;99.90
22450;DHT22;11392;57.390;-2.468;2024-01-06T01:02:42;1.70;99.90
22450;DHT22;11392;57.390;-2.468;2024-01-06T01:05:09;1.70;99.90
22450;DHT22;11392;57.390;-2.468;2024-01-06T01:07:36;1.90;99.90
22450;DHT22;11392;57.390;-2.468;2024-01-06T01:10:03;1.90;99.90
22450;DHT22;11392;57.390;-2.468;2024-01-06T01:12:31;1.80;99.90
22450;DHT22;11392;57.390;-2.468;2024-01-06T01:14:58;1.80;99.90
22450;DHT22;11392;57.390;-2.468;2024-01-06T01:17:25;1.90;99.90
22450;DHT22;11392;57.390;-2.468;2024-01-06T01:19:52;1.90;99.90
22450;DHT22;11392;57.390;-2.468;2024-01-06T01:22:20;1.90;99.90
22450;DHT22;11392;57.390;-2.468;2024-01-06T01:24:47;1.90;99.90
22450;DHT22;11392;57.390;-2.468;2024-01-06T01:27:14;1.90;99.90
22450;DHT22;11392;57.390;-2.468;2024-01-06T01:29:41;1.90;99.90
22450;DHT22;11392;57.390;-2.468;2024-01-06T01:32:08;2.00;99.90
22450;DHT22;11392;57.390;-2.468;2024-01-06T01:34:35;2.00;99.90
22450;DHT22;11392;57.390;-2.468;2024-01-06T01:37:03;1.90;99.90
22450;DHT22;11392;57.390;-2.468;2024-01-06T01:39:30;2.00;99.90
22450;DHT22;11392;57.390;-2.468;2024-01-06T01:41:57;2.00;99.90
22450;DHT22;11392;57.390;-2.468;2024-01-06T01:44:24;2.00;99.90
22450;DHT22;11392;57.390;-2.468;2024-01-06T01:46:51;2.00;99.90
22450;DHT22;11392;57.390;-2.468;2024-01-06T01:49:18;1.90;99.90
22450;DHT22;11392;57.390;-2.468;2024-01-06T01:51:45;1.90;99.90
22450;DHT22;11392;57.390;-2.468;2024-01-06T01:54:13;1.90;99.90
22450;DHT22;11392;57.390;-2.468;2024-01-06T01:56:41;1.90;99.90
22450;DHT22;11392;57.390;-2.468;2024-01-06T01:59:15;1.90;99.90
22450;DHT22;11392;57.390;-2.468;2024-01-06T02:01:44;1.90;99.90
22450;DHT22;11392;57.390;-2.468;2024-01-06T02:04:12;1.80;99.90
22450;DHT22;11392;57.390;-2.468;2024-01-06T02:06:39;1.80;99.90
22450;DHT22;11392;57.390;-2.468;2024-01-06T02:09:06;1.80;99.90
22450;DHT22;11392;57.390;-2.468;2024-01-06T02:11:33;1.90;99.90
22450;DHT22;11392;57.390;-2.468;2024-01-06T02:14:00;1.90;99.90
22450;DHT22;11392;57.390;-2.468;2024-01-06T02:16:27;2.00;99.90
22450;DHT22;11392;57.390;-2.468;2024-01-06T02:18:54;2.00;99.90
22450;DHT22;11392;57.390;-2.468;2024-01-06T02:21:23;2.00;99.90
22450;DHT22;11392;57.390;-2.468;2024-01-06T02:23:50;1.90;99.90
22450;DHT22;11392;57.390;-2.468;2024-01-06T02:26:18;2.00;99.90
22450;DHT22;11392;57.390;-2.468;2024-01-06T02:28:45;2.00;99.90
22450;DHT22;11392;57.390;-2.468;2024-01-06T02:31:14;1.90;99.90
22450;DHT22;11392;57.390;-2.468;2024-01-06T02:33:42;2.00;99.90
22450;DHT22;11392;57.390;-2.468;2024-01-06T02:36:09;2.00;99.90
22450;DHT22;11392;57.390;-2.468;2024-01-06T02:38:36;2.10;99.90
22450;DHT22;11392;57.390;-2.468;2024-01-06T02:41:03;2.10;99.90
22450;DHT22;11392;57.390;-2.468;2024-01-06T02:43:30;2.10;99.90
22450;DHT22;11392;57.390;-2.468;2024-01-06T02:45:57;2.00;99.90
22450;DHT22;11392;57.390;-2.468;2024-01-06T02:48:24;2.10;99.90
22450;DHT22;11392;57.390;-2.468;2024-01-06T02:50:51;2.10;99.90
22450;DHT22;11392;57.390;-2.468;2024-01-06T02:53:18;2.00;99.90
22450;DHT22;11392;57.390;-2.468;2024-01-06T02:55:45;2.00;99.90
22450;DHT22;11392;57.390;-2.468;2024-01-06T02:58:12;2.00;99.90
22450;DHT22;11392;57.390;-2.468;2024-01-06T03:00:39;1.90;99.90
22450;DHT22;11392;57.390;-2.468;2024-01-06T03:03:07;1.90;99.90
22450;DHT22;11392;57.390;-2.468;2024-01-06T03:05:34;1.90;99.90
22450;DHT22;11392;57.390;-2.468;2024-01-06T03:08:01;2.00;99.90
22450;DHT22;11392;57.390;-2.468;2024-01-06T03:10:28;1.90;99.90
22450;DHT22;11392;57.390;-2.468;2024-01-06T03:12:55;1.90;99.90
22450;DHT22;11392;57.390;-2.468;2024-01-06T03:15:22;1.90;99.90
22450;DHT22;11392;57.390;-2.468;2024-01-06T03:17:49;1.90;99.90
22450;DHT22;11392;57.390;-2.468;2024-01-06T03:20:16;1.90;99.90
22450;DHT22;11392;57.390;-2.468;2024-01-06T03:22:43;1.90;99.90
22450;DHT22;11392;57.390;-2.468;2024-01-06T03:25:10;1.90;99.90
22450;DHT22;11392;57.390;-2.468;2024-01-06T03:27:37;1.90;99.90
22450;DHT22;11392;57.390;-2.468;2024-01-06T03:30:05;1.90;99.90
22450;DHT22;11392;57.390;-2.468;2024-01-06T03:32:32;1.90;99.90
22450;DHT22;11392;57.390;-2.468;2024-01-06T03:34:59;2.00;99.90
22450;DHT22;11392;57.390;-2.468;2024-01-06T03:37:26;1.90;99.90
22450;DHT22;11392;57.390;-2.468;2024-01-06T03:39:53;2.00;99.90
22450;DHT22;11392;57.390;-2.468;2024-01-06T03:42:20;2.00;99.90
22450;DHT22;11392;57.390;-2.468;2024-01-06T03:44:47;2.00;99.90
22450;DHT22;11392;57.390;-2.468;2024-01-06T03:47:14;2.00;99.90
22450;DHT22;11392;57.390;-2.468;2024-01-06T03:49:41;2.00;99.90
22450;DHT22;11392;57.390;-2.468;2024-01-06T03:52:09;2.00;99.90
22450;DHT22;11392;57.390;-2.468;2024-01-06T03:54:35;2.00;99.90
22450;DHT22;11392;57.390;-2.468;2024-01-06T03:57:03;2.00;99.90
22450;DHT22;11392;57.390;-2.468;2024-01-06T03:59:30;2.00;99.90
22450;DHT22;11392;57.390;-2.468;2024-01-06T04:01:57;2.00;99.90
22450;DHT22;11392;57.390;-2.468;2024-01-06T04:04:24;2.00;99.90
22450;DHT22;11392;57.390;-2.468;2024-01-06T04:06:51;2.00;99.90
22450;DHT22;11392;57.390;-2.468;2024-01-06T04:09:18;2.00;99.90
22450;DHT22;11392;57.390;-2.468;2024-01-06T04:11:45;2.00;99.90
22450;DHT22;11392;57.390;-2.468;2024-01-06T04:14:12;2.00;99.90
22450;DHT22;11392;57.390;-2.468;2024-01-06T04:16:39;2.00;99.90
22450;DHT22;11392;57.390;-2.468;2024-01-06T04:19:06;1.90;99.90
22450;DHT22;11392;57.390;-2.468;2024-01-06T04:21:34;1.90;99.90
22450;DHT22;11392;57.390;-2.468;2024-01-06T04:24:01;1.90;99.90
22450;DHT22;11392;57.390;-2.468;2024-01-06T04:26:28;1.90;99.90
22450;DHT22;11392;57.390;-2.468;2024-01-06T04:28:55;2.00;99.90
22450;DHT22;11392;57.390;-2.468;2024-01-06T04:31:22;1.90;99.90
22450;DHT22;11392;57.390;-2.468;2024-01-06T04:33:50;1.90;99.90
22450;DHT22;11392;57.390;-2.468;2024-01-06T04:36:17;1.90;99.90
22450;DHT22;11392;57.390;-2.468;2024-01-06T04:38:44;2.00;99.90
22450;DHT22;11392;57.390;-2.468;2024-01-06T04:41:11;1.90;99.90
22450;DHT22;11392;57.390;-2.468;2024-01-06T04:43:38;2.00;99.90
22450;DHT22;11392;57.390;-2.468;2024-01-06T04:46:05;2.00;99.90
22450;DHT22;11392;57.390;-2.468;2024-01-06T04:48:32;1.90;99.90
22450;DHT22;11392;57.390;-2.468;2024-01-06T04:50:59;2.00;99.90
22450;DHT22;11392;57.390;-2.468;2024-01-06T04:53:26;1.90;99.90
22450;DHT22;11392;57.390;-2.468;2024-01-06T04:55:53;2.00;99.90
22450;DHT22;11392;57.390;-2.468;2024-01-06T04:58:20;1.90;99.90
22450;DHT22;11392;57.390;-2.468;2024-01-06T05:00:47;1.90;99.90
22450;DHT22;11392;57.390;-2.468;2024-01-06T05:03:14;1.90;99.90
22450;DHT22;11392;57.390;-2.468;2024-01-06T05:05:41;1.90;99.90
22450;DHT22;11392;57.390;-2.468;2024-01-06T05:08:09;1.90;99.90
22450;DHT22;11392;57.390;-2.468;2024-01-06T05:10:36;1.90;99.90
22450;DHT22;11392;57.390;-2.468;2024-01-06T05:13:03;1.90;99.90
22450;DHT22;11392;57.390;-2.468;2024-01-06T05:15:30;2.00;99.90
22450;DHT22;11392;57.390;-2.468;2024-01-06T05:17:57;2.00;99.90
22450;DHT22;11392;57.390;-2.468;2024-01-06T05:20:25;1.90;99.90
22450;DHT22;11392;57.390;-2.468;2024-01-06T05:22:52;1.90;99.90
22450;DHT22;11392;57.390;-2.468;2024-01-06T05:25:19;1.90;99.90
22450;DHT22;11392;57.390;-2.468;2024-01-06T05:27:46;2.00;99.90
22450;DHT22;11392;57.390;-2.468;2024-01-06T05:30:13;2.00;99.90
22450;DHT22;11392;57.390;-2.468;2024-01-06T05:32:40;2.10;99.90
22450;DHT22;11392;57.390;-2.468;2024-01-06T05:35:07;2.00;99.90
22450;DHT22;11392;57.390;-2.468;2024-01-06T05:37:35;2.00;99.90
22450;DHT22;11392;57.390;-2.468;2024-01-06T05:40:02;2.00;99.90
22450;DHT22;11392;57.390;-2.468;2024-01-06T05:42:31;2.00;99.90
22450;DHT22;11392;57.390;-2.468;2024-01-06T05:44:58;2.10;99.90
22450;DHT22;11392;57.390;-2.468;2024-01-06T05:47:25;2.10;99.90
22450;DHT22;11392;57.390;-2.468;2024-01-06T05:49:52;2.10;99.90
22450;DHT22;11392;57.390;-2.468;2024-01-06T05:52:19;2.10;99.90
22450;DHT22;11392;57.390;-2.468;2024-01-06T05:54:46;2.10;99.90
22450;DHT22;11392;57.390;-2.468;2024-01-06T05:57:13;2.10;99.90
22450;DHT22;11392;57.390;-2.468;2024-01-06T05:59:41;2.10;99.90
22450;DHT22;11392;57.390;-2.468;2024-01-06T06:02:08;2.10;99.90
22450;DHT22;11392;57.390;-2.468;2024-01-06T06:04:35;2.10;99.90
22450;DHT22;11392;57.390;-2.468;2024-01-06T06:07:03;2.00;99.90
22450;DHT22;11392;57.390;-2.468;2024-01-06T06:09:30;2.00;99.90
22450;DHT22;11392;57.390;-2.468;2024-01-06T06:11:58;2.10;99.90
22450;DHT22;11392;57.390;-2.468;2024-01-06T06:14:25;2.00;99.90
22450;DHT22;11392;57.390;-2.468;2024-01-06T06:16:56;2.00;99.90
22450;DHT22;11392;57.390;-2.468;2024-01-06T06:19:23;2.00;99.90
22450;DHT22;11392;57.390;-2.468;2024-01-06T06:21:51;2.00;99.90
22450;DHT22;11392;57.390;-2.468;2024-01-06T06:24:19;2.00;99.90
22450;DHT22;11392;57.390;-2.468;2024-01-06T06:26:46;2.10;99.90
22450;DHT22;11392;57.390;-2.468;2024-01-06T06:29:13;2.10;99.90
22450;DHT22;11392;57.390;-2.468;2024-01-06T06:31:41;2.20;99.90
22450;DHT22;11392;57.390;-2.468;2024-01-06T06:34:10;2.20;99.90
22450;DHT22;11392;57.390;-2.468;2024-01-06T06:36:37;2.20;99.90
22450;DHT22;11392;57.390;-2.468;2024-01-06T06:39:04;2.10;99.90
22450;DHT22;11392;57.390;-2.468;2024-01-06T06:41:31;2.10;99.90
22450;DHT22;11392;57.390;-2.468;2024-01-06T06:43:58;2.10;99.90
22450;DHT22;11392;57.390;-2.468;2024-01-06T06:46:26;2.10;99.90
22450;DHT22;11392;57.390;-2.468;2024-01-06T06:48:53;2.10;99.90
22450;DHT22;11392;57.390;-2.468;2024-01-06T06:51:22;2.20;99.90
22450;DHT22;11392;57.390;-2.468;2024-01-06T06:53:52;2.10;99.90
22450;DHT22;11392;57.390;-2.468;2024-01-06T06:56:19;2.20;99.90
22450;DHT22;11392;57.390;-2.468;2024-01-06T06:58:46;2.10;99.90
22450;DHT22;11392;57.390;-2.468;2024-01-06T07:01:16;2.10;99.90
22450;DHT22;11392;57.390;-2.468;2024-01-06T07:03:43;2.10;99.90
22450;DHT22;11392;57.390;-2.468;2024-01-06T07:06:13;2.10;99.90
22450;DHT22;11392;57.390;-2.468;2024-01-06T07:08:41;2.20;99.90
22450;DHT22;11392;57.390;-2.468;2024-01-06T07:11:09;2.10;99.90
22450;DHT22;11392;57.390;-2.468;2024-01-06T07:13:38;2.10;99.90
22450;DHT22;11392;57.390;-2.468;2024-01-06T07:16:06;2.10;99.90
22450;DHT22;11392;57.390;-2.468;2024-01-06T07:18:44;2.10;99.90
22450;DHT22;11392;57.390;-2.468;2024-01-06T07:21:12;2.00;99.90
22450;DHT22;11392;57.390;-2.468;2024-01-06T07:23:40;2.10;99.90
22450;DHT22;11392;57.390;-2.468;2024-01-06T07:26:07;2.00;99.90
22450;DHT22;11392;57.390;-2.468;2024-01-06T07:28:35;2.00;99.90
22450;DHT22;11392;57.390;-2.468;2024-01-06T07:31:02;2.10;99.90
22450;DHT22;11392;57.390;-2.468;2024-01-06T07:33:29;2.10;99.90
22450;DHT22;11392;57.390;-2.468;2024-01-06T07:35:56;2.00;99.90
22450;DHT22;11392;57.390;-2.468;2024-01-06T07:38:23;2.00;99.90
22450;DHT22;11392;57.390;-2.468;2024-01-06T07:40:51;1.90;99.90
22450;DHT22;11392;57.390;-2.468;2024-01-06T07:43:18;1.90;99.90
22450;DHT22;11392;57.390;-2.468;2024-01-06T07:45:46;2.00;99.90
22450;DHT22;11392;57.390;-2.468;2024-01-06T07:48:13;2.00;99.90
22450;DHT22;11392;57.390;-2.468;2024-01-06T07:50:40;2.10;99.90
22450;DHT22;11392;57.390;-2.468;2024-01-06T07:53:07;2.10;99.90
22450;DHT22;11392;57.390;-2.468;2024-01-06T07:55:34;2.10;99.90
22450;DHT22;11392;57.390;-2.468;2024-01-06T07:58:02;2.10;99.90
22450;DHT22;11392;57.390;-2.468;2024-01-06T08:00:30;2.10;99.90
22450;DHT22;11392;57.390;-2.468;2024-01-06T08:02:57;2.00;99.90
22450;DHT22;11392;57.390;-2.468;2024-01-06T08:05:24;2.00;99.90
22450;DHT22;11392;57.390;-2.468;2024-01-06T08:07:51;2.00;99.90
22450;DHT22;11392;57.390;-2.468;2024-01-06T08:10:18;1.90;99.90
22450;DHT22;11392;57.390;-2.468;2024-01-06T08:12:47;1.90;99.90
22450;DHT22;11392;57.390;-2.468;2024-01-06T08:15:15;1.80;99.90
22450;DHT22;11392;57.390;-2.468;2024-01-06T08:17:42;1.90;99.90
22450;DHT22;11392;57.390;-2.468;2024-01-06T08:20:10;1.90;99.90
22450;DHT22;11392;57.390;-2.468;2024-01-06T08:22:37;1.90;99.90
22450;DHT22;11392;57.390;-2.468;2024-01-06T08:25:05;1.90;99.90
22450;DHT22;11392;57.390;-2.468;2024-01-06T08:27:35;1.90;99.90
22450;DHT22;11392;57.390;-2.468;2024-01-06T08:30:02;1.80;99.90
22450;DHT22;11392;57.390;-2.468;2024-01-06T08:32:30;1.80;99.90
22450;DHT22;11392;57.390;-2.468;2024-01-06T08:34:57;1.80;99.90
22450;DHT22;11392;57.390;-2.468;2024-01-06T08:37:24;1.90;99.90
22450;DHT22;11392;57.390;-2.468;2024-01-06T08:39:53;1.90;99.90
22450;DHT22;11392;57.390;-2.468;2024-01-06T08:42:20;1.90;99.90
22450;DHT22;11392;57.390;-2.468;2024-01-06T08:44:47;1.90;99.90
22450;DHT22;11392;57.390;-2.468;2024-01-06T08:47:15;1.90;99.90
22450;DHT22;11392;57.390;-2.468;2024-01-06T08:49:45;1.90;99.90
22450;DHT22;11392;57.390;-2.468;2024-01-06T08:52:12;1.90;99.90
22450;DHT22;11392;57.390;-2.468;2024-01-06T08:54:39;1.90;99.90
22450;DHT22;11392;57.390;-2.468;2024-01-06T08:57:06;1.90;99.90
22450;DHT22;11392;57.390;-2.468;2024-01-06T08:59:35;1.90;99.90
22450;DHT22;11392;57.390;-2.468;2024-01-06T09:02:07;2.00;99.90
22450;DHT22;11392;57.390;-2.468;2024-01-06T09:04:34;1.90;99.90
22450;DHT22;11392;57.390;-2.468;2024-01-06T09:07:02;1.90;99.90
22450;DHT22;11392;57.390;-2.468;2024-01-06T09:09:29;1.90;99.90
22450;DHT22;11392;57.390;-2.468;2024-01-06T09:11:57;1.80;99.90
22450;DHT22;11392;57.390;-2.468;2024-01-06T09:14:27;1.80;99.90
22450;DHT22;11392;57.390;-2.468;2024-01-06T09:16:54;1.80;99.90
22450;DHT22;11392;57.390;-2.468;2024-01-06T09:19:21;1.80;99.90
22450;DHT22;11392;57.390;-2.468;2024-01-06T09:21:49;1.80;99.90
22450;DHT22;11392;57.390;-2.468;2024-01-06T09:24:16;1.90;99.90
22450;DHT22;11392;57.390;-2.468;2024-01-06T09:26:43;2.00;99.90
22450;DHT22;11392;57.390;-2.468;2024-01-06T09:29:11;2.20;99.90
22450;DHT22;11392;57.390;-2.468;2024-01-06T09:31:39;2.40;99.90
22450;DHT22;11392;57.390;-2.468;2024-01-06T09:34:09;2.50;99.90
22450;DHT22;11392;57.390;-2.468;2024-01-06T09:36:37;2.60;99.90
22450;DHT22;11392;57.390;-2.468;2024-01-06T09:39:04;2.80;99.90
22450;DHT22;11392;57.390;-2.468;2024-01-06T09:41:35;3.00;99.90
22450;DHT22;11392;57.390;-2.468;2024-01-06T09:44:02;3.10;99.90
22450;DHT22;11392;57.390;-2.468;2024-01-06T09:46:29;3.50;99.90
22450;DHT22;11392;57.390;-2.468;2024-01-06T09:48:58;3.80;99.90
22450;DHT22;11392;57.390;-2.468;2024-01-06T09:51:25;4.00;99.90
22450;DHT22;11392;57.390;-2.468;2024-01-06T09:54:03;4.20;99.90
22450;DHT22;11392;57.390;-2.468;2024-01-06T09:56:36;4.50;99.90
22450;DHT22;11392;57.390;-2.468;2024-01-06T09:59:03;4.60;99.90
22450;DHT22;11392;57.390;-2.468;2024-01-06T10:01:31;4.80;99.90
22450;DHT22;11392;57.390;-2.468;2024-01-06T10:03:58;4.90;99.90
22450;DHT22;11392;57.390;-2.468;2024-01-06T10:06:26;5.10;99.90
22450;DHT22;11392;57.390;-2.468;2024-01-06T10:08:53;5.30;99.90
22450;DHT22;11392;57.390;-2.468;2024-01-06T10:11:22;5.30;99.90
22450;DHT22;11392;57.390;-2.468;2024-01-06T10:13:50;5.50;99.90
22450;DHT22;11392;57.390;-2.468;2024-01-06T10:16:18;5.60;99.90
22450;DHT22;11392;57.390;-2.468;2024-01-06T10:18:46;5.70;99.90
22450;DHT22;11392;57.390;-2.468;2024-01-06T10:21:24;5.90;99.90
22450;DHT22;11392;57.390;-2.468;2024-01-06T10:23:54;5.90;99.90
22450;DHT22;11392;57.390;-2.468;2024-01-06T10:26:22;5.90;99.90
22450;DHT22;11392;57.390;-2.468;2024-01-06T10:28:49;6.00;99.90
22450;DHT22;11392;57.390;-2.468;2024-01-06T10:31:18;6.10;99.90
22450;DHT22;11392;57.390;-2.468;2024-01-06T10:33:46;6.30;99.90
22450;DHT22;11392;57.390;-2.468;2024-01-06T10:36:14;6.20;99.90
22450;DHT22;11392;57.390;-2.468;2024-01-06T10:38:44;6.00;99.90
22450;DHT22;11392;57.390;-2.468;2024-01-06T10:41:12;6.00;99.90
22450;DHT22;11392;57.390;-2.468;2024-01-06T10:43:41;6.00;99.90
22450;DHT22;11392;57.390;-2.468;2024-01-06T10:46:10;5.90;99.90
22450;DHT22;11392;57.390;-2.468;2024-01-06T10:48:39;6.00;99.90
22450;DHT22;11392;57.390;-2.468;2024-01-06T10:51:11;6.00;99.90
22450;DHT22;11392;57.390;-2.468;2024-01-06T10:53:42;5.90;99.90
22450;DHT22;11392;57.390;-2.468;2024-01-06T10:56:10;5.90;99.90
22450;DHT22;11392;57.390;-2.468;2024-01-06T10:58:45;5.90;99.90
22450;DHT22;11392;57.390;-2.468;2024-01-06T11:01:14;6.00;99.90
22450;DHT22;11392;57.390;-2.468;2024-01-06T11:03:48;6.30;99.90
22450;DHT22;11392;57.390;-2.468;2024-01-06T11:06:16;6.20;99.90
22450;DHT22;11392;57.390;-2.468;2024-01-06T11:11:31;6.00;99.90
22450;DHT22;11392;57.390;-2.468;2024-01-06T11:16:44;6.50;99.90
22450;DHT22;11392;57.390;-2.468;2024-01-06T11:22:30;6.90;99.90
22450;DHT22;11392;57.390;-2.468;2024-01-06T11:25:07;6.70;99.90
22450;DHT22;11392;57.390;-2.468;2024-01-06T11:27:35;6.90;99.90
22450;DHT22;11392;57.390;-2.468;2024-01-06T11:30:04;7.10;99.90
22450;DHT22;11392;57.390;-2.468;2024-01-06T11:32:36;6.90;99.90
22450;DHT22;11392;57.390;-2.468;2024-01-06T11:35:14;7.20;99.90
22450;DHT22;11392;57.390;-2.468;2024-01-06T11:45:25;7.40;99.90
22450;DHT22;11392;57.390;-2.468;2024-01-06T11:48:04;7.30;99.90
22450;DHT22;11392;57.390;-2.468;2024-01-06T11:50:33;7.50;99.90
22450;DHT22;11392;57.390;-2.468;2024-01-06T11:53:02;7.40;99.90
22450;DHT22;11392;57.390;-2.468;2024-01-06T11:55:29;7.60;99.90
22450;DHT22;11392;57.390;-2.468;2024-01-06T11:58:00;7.70;99.90
22450;DHT22;11392;57.390;-2.468;2024-01-06T12:00:34;7.70;99.90
22450;DHT22;11392;57.390;-2.468;2024-01-06T12:03:07;7.90;99.90
22450;DHT22;11392;57.390;-2.468;2024-01-06T12:05:35;8.00;99.90
22450;DHT22;11392;57.390;-2.468;2024-01-06T12:08:03;8.20;99.90
22450;DHT22;11392;57.390;-2.468;2024-01-06T12:10:35;8.00;99.90
22450;DHT22;11392;57.390;-2.468;2024-01-06T12:13:05;8.00;99.90
22450;DHT22;11392;57.390;-2.468;2024-01-06T12:15:36;8.00;99.90
22450;DHT22;11392;57.390;-2.468;2024-01-06T12:18:07;8.00;99.90
22450;DHT22;11392;57.390;-2.468;2024-01-06T12:20:34;8.10;99.90
22450;DHT22;11392;57.390;-2.468;2024-01-06T12:23:02;8.20;99.90
22450;DHT22;11392;57.390;-2.468;2024-01-06T12:25:34;8.20;99.90
22450;DHT22;11392;57.390;-2.468;2024-01-06T12:28:06;8.50;99.90
22450;DHT22;11392;57.390;-2.468;2024-01-06T12:30:34;8.50;99.90
22450;DHT22;11392;57.390;-2.468;2024-01-06T12:33:02;8.50;99.90
22450;DHT22;11392;57.390;-2.468;2024-01-06T12:35:30;8.60;99.90
22450;DHT22;11392;57.390;-2.468;2024-01-06T12:37:57;8.80;99.90
22450;DHT22;11392;57.390;-2.468;2024-01-06T12:40:24;9.00;99.90
22450;DHT22;11392;57.390;-2.468;2024-01-06T12:42:53;9.10;99.90
22450;DHT22;11392;57.390;-2.468;2024-01-06T12:45:20;9.10;99.90
22450;DHT22;11392;57.390;-2.468;2024-01-06T12:47:50;8.80;99.90
22450;DHT22;11392;57.390;-2.468;2024-01-06T12:50:18;8.90;99.90
22450;DHT22;11392;57.390;-2.468;2024-01-06T12:52:45;8.90;99.90
22450;DHT22;11392;57.390;-2.468;2024-01-06T12:55:12;8.90;99.90
22450;DHT22;11392;57.390;-2.468;2024-01-06T12:57:41;8.90;99.90
22450;DHT22;11392;57.390;-2.468;2024-01-06T13:00:09;9.10;99.90
22450;DHT22;11392;57.390;-2.468;2024-01-06T13:02:38;8.80;99.90
22450;DHT22;11392;57.390;-2.468;2024-01-06T13:05:06;8.70;99.90
22450;DHT22;11392;57.390;-2.468;2024-01-06T13:07:33;8.80;99.90
22450;DHT22;11392;57.390;-2.468;2024-01-06T13:10:00;8.90;99.90
22450;DHT22;11392;57.390;-2.468;2024-01-06T13:12:28;8.80;99.90
22450;DHT22;11392;57.390;-2.468;2024-01-06T13:14:56;8.80;99.90
22450;DHT22;11392;57.390;-2.468;2024-01-06T13:17:23;8.80;99.90
22450;DHT22;11392;57.390;-2.468;2024-01-06T13:19:50;8.80;99.90
22450;DHT22;11392;57.390;-2.468;2024-01-06T13:22:18;8.80;99.90
22450;DHT22;11392;57.390;-2.468;2024-01-06T13:24:47;8.80;99.90
22450;DHT22;11392;57.390;-2.468;2024-01-06T13:27:18;8.70;99.90
22450;DHT22;11392;57.390;-2.468;2024-01-06T13:29:46;8.70;99.90
22450;DHT22;11392;57.390;-2.468;2024-01-06T13:32:13;8.50;99.90
22450;DHT22;11392;57.390;-2.468;2024-01-06T13:34:42;8.40;99.90
22450;DHT22;11392;57.390;-2.468;2024-01-06T13:37:09;8.40;99.90
22450;DHT22;11392;57.390;-2.468;2024-01-06T13:39:37;8.40;99.90
22450;DHT22;11392;57.390;-2.468;2024-01-06T13:42:04;8.50;99.90
22450;DHT22;11392;57.390;-2.468;2024-01-06T13:44:32;8.40;99.90
22450;DHT22;11392;57.390;-2.468;2024-01-06T13:47:00;8.20;99.90
22450;DHT22;11392;57.390;-2.468;2024-01-06T13:49:27;8.20;99.90
22450;DHT22;11392;57.390;-2.468;2024-01-06T13:51:55;8.30;99.90
22450;DHT22;11392;57.390;-2.468;2024-01-06T13:54:23;8.10;99.90
22450;DHT22;11392;57.390;-2.468;2024-01-06T13:56:50;8.00;99.90
22450;DHT22;11392;57.390;-2.468;2024-01-06T13:59:18;8.10;99.90
22450;DHT22;11392;57.390;-2.468;2024-01-06T14:01:46;8.10;99.90
22450;DHT22;11392;57.390;-2.468;2024-01-06T14:04:13;8.20;99.90
22450;DHT22;11392;57.390;-2.468;2024-01-06T14:06:41;8.10;99.90
22450;DHT22;11392;57.390;-2.468;2024-01-06T14:09:08;8.20;99.90
22450;DHT22;11392;57.390;-2.468;2024-01-06T14:11:35;8.10;99.90
22450;DHT22;11392;57.390;-2.468;2024-01-06T14:14:03;7.90;99.90
22450;DHT22;11392;57.390;-2.468;2024-01-06T14:16:32;7.80;99.90
22450;DHT22;11392;57.390;-2.468;2024-01-06T14:18:59;7.90;99.90
22450;DHT22;11392;57.390;-2.468;2024-01-06T14:21:26;7.60;99.90
22450;DHT22;11392;57.390;-2.468;2024-01-06T14:23:55;7.40;99.90
22450;DHT22;11392;57.390;-2.468;2024-01-06T14:26:22;7.30;99.90
22450;DHT22;11392;57.390;-2.468;2024-01-06T14:28:50;7.40;99.90
22450;DHT22;11392;57.390;-2.468;2024-01-06T14:31:18;7.20;99.90
22450;DHT22;11392;57.390;-2.468;2024-01-06T14:33:45;6.80;99.90
22450;DHT22;11392;57.390;-2.468;2024-01-06T14:36:13;6.70;99.90
22450;DHT22;11392;57.390;-2.468;2024-01-06T14:38:40;6.60;99.90
22450;DHT22;11392;57.390;-2.468;2024-01-06T14:41:07;6.50;99.90
22450;DHT22;11392;57.390;-2.468;2024-01-06T14:43:34;6.30;99.90
22450;DHT22;11392;57.390;-2.468;2024-01-06T14:46:02;6.10;99.90
22450;DHT22;11392;57.390;-2.468;2024-01-06T14:48:29;6.10;99.90
22450;DHT22;11392;57.390;-2.468;2024-01-06T14:50:56;6.10;99.90
22450;DHT22;11392;57.390;-2.468;2024-01-06T14:53:24;6.20;99.90
22450;DHT22;11392;57.390;-2.468;2024-01-06T14:55:51;6.10;99.90
22450;DHT22;11392;57.390;-2.468;2024-01-06T14:58:18;6.10;99.90
22450;DHT22;11392;57.390;-2.468;2024-01-06T15:00:45;6.00;99.90
22450;DHT22;11392;57.390;-2.468;2024-01-06T15:03:12;5.90;99.90
22450;DHT22;11392;57.390;-2.468;2024-01-06T15:05:39;5.90;99.90
22450;DHT22;11392;57.390;-2.468;2024-01-06T15:08:07;5.70;99.90
22450;DHT22;11392;57.390;-2.468;2024-01-06T15:10:34;5.70;99.90
22450;DHT22;11392;57.390;-2.468;2024-01-06T15:13:01;5.70;99.90
22450;DHT22;11392;57.390;-2.468;2024-01-06T15:15:30;5.70;99.90
22450;DHT22;11392;57.390;-2.468;2024-01-06T15:17:57;5.50;99.90
22450;DHT22;11392;57.390;-2.468;2024-01-06T15:20:24;5.40;99.90
22450;DHT22;11392;57.390;-2.468;2024-01-06T15:22:51;5.20;99.90
22450;DHT22;11392;57.390;-2.468;2024-01-06T15:25:18;5.10;99.90
22450;DHT22;11392;57.390;-2.468;2024-01-06T15:42:17;4.70;99.90
22450;DHT22;11392;57.390;-2.468;2024-01-06T15:44:44;4.60;99.90
22450;DHT22;11392;57.390;-2.468;2024-01-06T15:47:11;4.50;99.90
22450;DHT22;11392;57.390;-2.468;2024-01-06T15:49:38;4.50;99.90
22450;DHT22;11392;57.390;-2.468;2024-01-06T15:52:05;4.40;99.90
22450;DHT22;11392;57.390;-2.468;2024-01-06T15:54:34;4.40;99.90
22450;DHT22;11392;57.390;-2.468;2024-01-06T15:57:01;4.40;99.90
22450;DHT22;11392;57.390;-2.468;2024-01-06T16:02:05;4.30;99.90
22450;DHT22;11392;57.390;-2.468;2024-01-06T16:04:33;4.20;99.90
22450;DHT22;11392;57.390;-2.468;2024-01-06T16:07:00;4.20;99.90